Time;durP1;ratioP1;P1;durP2;ratioP2;P2;SDS_P1;SDS_P2;PMS_P1;PMS_P2;Temp;Humidity;BMP_temperature;BMP_pressure;BME280_temperature;BME280_humidity;BME280_pressure;Samples;Min_cycle;Max_cycle;Signal;HPM_P1;HPM_P2
2023/06/29 01:25:16;;;;;;;66.15;45.10;;;17.80;99.90;;;;;;4978439;28;20069;-71
2023/06/29 01:27:43;;;;;;;65.90;45.50;;;17.90;99.90;;;;;;4994560;28;20050;-70
2023/06/29 01:30:11;;;;;;;62.50;44.80;;;17.80;99.90;;;;;;4964543;28;20880;-70
2023/06/29 01:32:37;;;;;;;62.42;45.08;;;17.70;99.90;;;;;;4986625;28;20129;-71
2023/06/29 01:35:04;;;;;;;61.45;44.83;;;17.70;99.90;;;;;;4992806;28;20050;-71
2023/06/29 01:37:39;;;;;;;65.00;45.03;;;17.70;99.90;;;;;;4994230;28;20042;-70
2023/06/29 01:40:08;;;;;;;62.40;44.40;;;17.80;99.90;;;;;;4980462;28;20526;-70
2023/06/29 01:42:37;;;;;;;62.40;44.47;;;18.00;99.90;;;;;;4980540;28;20047;-71
2023/06/29 01:45:05;;;;;;;61.47;44.75;;;17.90;99.90;;;;;;4981476;28;20050;-73
2023/06/29 01:47:32;;;;;;;65.78;46.25;;;17.80;99.90;;;;;;4986053;28;20650;-70
2023/06/29 01:49:59;;;;;;;62.75;45.35;;;18.00;99.90;;;;;;4979548;28;20485;-72
2023/06/29 01:52:25;;;;;;;56.92;43.42;;;17.70;99.90;;;;;;4985142;28;20080;-71
2023/06/29 01:54:51;;;;;;;61.42;44.95;;;17.60;99.90;;;;;;4989007;28;20418;-70
2023/06/29 01:57:17;;;;;;;61.35;45.00;;;17.90;99.90;;;;;;4975571;28;20046;-71
2023/06/29 01:59:44;;;;;;;67.13;46.45;;;17.80;99.90;;;;;;4986463;28;20132;-70
2023/06/29 02:02:10;;;;;;;60.50;45.65;;;17.90;99.90;;;;;;4982436;28;20249;-70
2023/06/29 02:04:35;;;;;;;61.00;45.83;;;17.90;99.90;;;;;;4972820;28;20097;-70
2023/06/29 02:07:01;;;;;;;65.00;45.63;;;18.00;99.90;;;;;;4983312;28;20379;-70
2023/06/29 02:09:27;;;;;;;64.20;46.50;;;17.70;99.90;;;;;;4986462;28;20045;-69
2023/06/29 02:11:53;;;;;;;60.63;44.88;;;18.00;99.90;;;;;;4985928;28;20533;-71
2023/06/29 02:14:18;;;;;;;64.57;46.05;;;17.70;99.90;;;;;;4975360;28;20134;-73
2023/06/29 02:16:46;;;;;;;65.57;46.25;;;17.80;99.90;;;;;;4978202;28;20046;-71
2023/06/29 02:19:12;;;;;;;62.45;45.45;;;17.60;99.90;;;;;;4977938;28;20080;-72
2023/06/29 02:21:38;;;;;;;63.28;44.63;;;18.00;99.90;;;;;;4974862;28;20038;-70
2023/06/29 02:24:04;;;;;;;62.58;44.75;;;17.90;99.90;;;;;;4978372;28;20050;-72
2023/06/29 02:26:30;;;;;;;65.65;46.88;;;17.80;99.90;;;;;;4971138;28;20066;-69
2023/06/29 02:28:56;;;;;;;64.78;45.67;;;17.70;99.90;;;;;;4977898;28;20053;-71
2023/06/29 02:31:22;;;;;;;64.47;45.75;;;17.90;99.90;;;;;;4990577;28;20061;-73
2023/06/29 02:33:49;;;;;;;61.72;46.22;;;18.00;99.90;;;;;;4989027;28;20045;-71
2023/06/29 02:36:20;;;;;;;62.08;45.25;;;17.70;99.90;;;;;;4981768;28;20360;-71
2023/06/29 02:38:47;;;;;;;62.80;43.33;;;17.70;99.90;;;;;;4986942;28;20520;-69
2023/06/29 02:41:13;;;;;;;64.57;45.85;;;17.70;99.90;;;;;;4969431;28;20030;-71
2023/06/29 02:43:38;;;;;;;59.35;43.50;;;17.70;99.90;;;;;;4957863;28;20436;-72
2023/06/29 02:46:04;;;;;;;62.25;43.88;;;17.90;99.90;;;;;;4983962;28;20128;-71
2023/06/29 02:48:30;;;;;;;66.35;43.83;;;18.00;99.90;;;;;;4984321;28;20430;-71
2023/06/29 02:50:56;;;;;;;56.88;41.10;;;18.00;99.90;;;;;;4978839;28;20541;-74
2023/06/29 02:53:22;;;;;;;59.50;43.67;;;17.90;99.90;;;;;;4971733;28;20041;-71
2023/06/29 02:55:48;;;;;;;61.63;43.88;;;18.00;99.90;;;;;;4977610;28;20050;-71
2023/06/29 02:58:14;;;;;;;56.00;41.35;;;18.00;99.90;;;;;;4945311;28;20132;-71
2023/06/29 03:00:39;;;;;;;57.42;42.70;;;18.10;99.90;;;;;;4975210;28;20725;-71
2023/06/29 03:03:05;;;;;;;57.55;42.10;;;18.00;99.90;;;;;;4982499;28;20046;-71
2023/06/29 03:05:31;;;;;;;58.50;42.88;;;18.00;99.90;;;;;;4987467;28;20486;-71
2023/06/29 03:07:57;;;;;;;62.33;42.70;;;18.00;99.90;;;;;;4983936;28;20050;-71
2023/06/29 03:10:22;;;;;;;59.75;42.33;;;18.10;99.90;;;;;;4986538;28;20681;-70
2023/06/29 03:12:48;;;;;;;60.17;43.72;;;17.90;99.90;;;;;;4971859;28;20060;-70
2023/06/29 03:15:14;;;;;;;57.40;42.15;;;17.90;99.90;;;;;;4968838;28;20050;-71
2023/06/29 03:17:39;;;;;;;63.78;44.38;;;18.00;99.90;;;;;;4974944;28;20306;-69
2023/06/29 03:20:06;;;;;;;60.53;42.95;;;18.00;99.90;;;;;;4985546;28;20085;-71
2023/06/29 03:22:32;;;;;;;58.85;43.40;;;17.80;99.90;;;;;;4971327;28;20764;-70
2023/06/29 03:24:58;;;;;;;57.95;42.80;;;17.80;99.90;;;;;;4981544;28;20054;-71
2023/06/29 03:27:24;;;;;;;63.30;44.35;;;18.10;99.90;;;;;;4985795;28;20108;-69
2023/06/29 03:29:52;;;;;;;62.50;43.45;;;17.80;99.90;;;;;;4979179;28;20632;-70
2023/06/29 03:32:18;;;;;;;59.72;44.40;;;17.80;99.90;;;;;;4982799;28;20548;-70
2023/06/29 03:34:44;;;;;;;62.67;42.88;;;17.80;99.90;;;;;;4978690;28;20047;-74
2023/06/29 03:37:10;;;;;;;56.97;42.58;;;18.10;99.90;;;;;;4938799;28;20060;-71
2023/06/29 03:39:35;;;;;;;58.30;43.28;;;18.00;99.90;;;;;;4982511;28;20566;-71
2023/06/29 03:42:01;;;;;;;54.70;42.97;;;17.90;99.90;;;;;;4970353;28;20066;-70
2023/06/29 03:44:27;;;;;;;59.53;43.63;;;18.10;99.90;;;;;;4974223;28;20567;-70
2023/06/29 03:46:53;;;;;;;53.63;41.25;;;18.10;99.90;;;;;;4969680;28;20734;-73
2023/06/29 03:49:18;;;;;;;58.50;43.33;;;17.90;99.90;;;;;;4983718;28;20050;-71
2023/06/29 03:51:44;;;;;;;56.20;42.05;;;18.00;99.90;;;;;;4976434;28;20053;-71
2023/06/29 03:54:10;;;;;;;54.22;41.25;;;18.10;99.90;;;;;;4968303;28;20102;-71
2023/06/29 03:56:35;;;;;;;52.17;40.63;;;18.00;99.90;;;;;;4966449;28;20093;-70
2023/06/29 03:59:01;;;;;;;51.47;39.83;;;18.20;99.90;;;;;;4975046;28;20533;-71
2023/06/29 04:01:27;;;;;;;54.42;41.17;;;17.90;99.90;;;;;;4978937;28;20050;-70
2023/06/29 04:03:53;;;;;;;57.03;41.53;;;18.10;99.90;;;;;;4984239;28;20108;-72
2023/06/29 04:06:19;;;;;;;55.97;41.30;;;18.00;99.90;;;;;;4984403;28;20085;-71
2023/06/29 04:08:44;;;;;;;53.67;41.20;;;18.30;99.90;;;;;;4978099;28;20776;-70
2023/06/29 04:11:12;;;;;;;56.40;40.22;;;18.00;99.90;;;;;;4986962;28;20067;-70
2023/06/29 04:13:37;;;;;;;51.85;39.22;;;18.30;99.90;;;;;;4976354;28;20133;-71
2023/06/29 04:16:03;;;;;;;50.20;38.75;;;18.20;99.90;;;;;;4964878;28;20049;-70
2023/06/29 04:18:29;;;;;;;50.65;39.10;;;18.20;99.90;;;;;;4970607;28;20705;-70
2023/06/29 04:20:55;;;;;;;49.05;38.30;;;18.40;99.90;;;;;;4985937;28;20057;-70
2023/06/29 04:23:21;;;;;;;50.38;39.55;;;18.20;99.90;;;;;;4973890;28;20061;-71
2023/06/29 04:25:46;;;;;;;47.58;36.70;;;18.20;99.90;;;;;;4976659;28;20145;-72
2023/06/29 04:28:12;;;;;;;52.03;38.28;;;18.50;99.90;;;;;;4979858;28;20168;-70
2023/06/29 04:30:42;;;;;;;48.03;37.40;;;18.30;99.90;;;;;;4981324;28;20076;-70
2023/06/29 04:33:11;;;;;;;48.17;35.90;;;18.50;99.90;;;;;;4997357;28;20133;-69
2023/06/29 04:35:44;;;;;;;45.53;35.25;;;18.30;99.90;;;;;;4984880;28;20080;-70
2023/06/29 04:38:10;;;;;;;46.75;36.90;;;18.40;99.90;;;;;;4973551;28;20152;-71
2023/06/29 04:40:37;;;;;;;47.55;36.33;;;18.40;99.90;;;;;;4979903;28;20069;-70
2023/06/29 04:43:03;;;;;;;47.72;36.03;;;18.40;99.90;;;;;;4987798;28;20052;-71
2023/06/29 04:45:31;;;;;;;44.00;36.85;;;18.60;99.90;;;;;;4957802;28;20073;-71
2023/06/29 04:47:58;;;;;;;48.42;35.47;;;18.60;99.90;;;;;;4977699;28;20093;-70
2023/06/29 04:50:31;;;;;;;48.78;35.22;;;18.50;99.90;;;;;;4978726;28;20561;-71
2023/06/29 04:53:12;;;;;;;45.70;35.00;;;18.60;99.90;;;;;;4988031;28;20555;-71
2023/06/29 04:55:38;;;;;;;46.55;34.17;;;18.70;99.90;;;;;;4992056;28;20045;-71
2023/06/29 04:58:04;;;;;;;47.58;33.63;;;18.60;99.90;;;;;;4979315;28;20046;-70
2023/06/29 05:00:32;;;;;;;41.28;33.42;;;18.80;99.90;;;;;;4987186;28;20062;-70
2023/06/29 05:02:58;;;;;;;41.45;33.45;;;18.90;99.90;;;;;;4974262;28;20396;-72
2023/06/29 05:05:24;;;;;;;39.88;31.80;;;18.80;99.90;;;;;;4965102;28;20054;-71
2023/06/29 05:07:50;;;;;;;37.88;29.92;;;19.00;99.90;;;;;;4984852;28;20103;-69
2023/06/29 05:10:16;;;;;;;38.63;31.05;;;19.00;99.90;;;;;;4992738;28;20054;-69
2023/06/29 05:12:42;;;;;;;43.53;31.48;;;19.10;99.90;;;;;;4981819;28;20485;-70
2023/06/29 05:15:08;;;;;;;37.33;29.45;;;19.20;99.90;;;;;;4972650;28;20570;-69
2023/06/29 05:17:34;;;;;;;39.13;31.40;;;19.30;99.90;;;;;;4985498;28;20716;-71
2023/06/29 05:19:59;;;;;;;38.97;30.55;;;19.50;99.90;;;;;;4990378;28;20477;-69
2023/06/29 05:22:25;;;;;;;38.03;30.80;;;19.40;99.90;;;;;;4971699;28;20100;-69
2023/06/29 05:24:51;;;;;;;37.90;29.73;;;19.50;99.90;;;;;;4980281;28;20046;-69
2023/06/29 05:27:17;;;;;;;38.75;27.95;;;19.70;99.90;;;;;;4990951;28;20061;-70
2023/06/29 05:29:42;;;;;;;37.70;29.30;;;19.80;99.90;;;;;;4970619;28;20625;-72
2023/06/29 05:32:08;;;;;;;34.55;27.75;;;19.90;99.90;;;;;;4979782;28;20078;-71
2023/06/29 05:34:35;;;;;;;38.85;29.58;;;19.90;99.90;;;;;;4984388;28;20050;-71
2023/06/29 05:37:01;;;;;;;33.83;27.90;;;20.00;99.90;;;;;;4959087;28;20053;-72
2023/06/29 05:39:27;;;;;;;36.22;28.38;;;20.00;53.00;;;;;;4974909;28;20545;-69
2023/06/29 05:41:53;;;;;;;33.35;26.85;;;20.10;1.20;;;;;;4986710;28;20085;-70
2023/06/29 05:44:18;;;;;;;33.58;26.08;;;20.20;1.00;;;;;;4984424;28;20449;-72
2023/06/29 05:46:44;;;;;;;30.77;25.00;;;20.30;1.00;;;;;;4974564;28;20531;-70
2023/06/29 05:49:13;;;;;;;31.48;25.17;;;20.40;1.00;;;;;;4973871;28;20125;-70
2023/06/29 05:51:39;;;;;;;31.60;24.23;;;20.40;99.90;;;;;;4981929;28;20057;-70
2023/06/29 05:54:04;;;;;;;31.52;24.60;;;20.40;99.90;;;;;;4965919;28;20050;-71
2023/06/29 05:56:31;;;;;;;31.48;23.58;;;20.30;99.90;;;;;;4972170;28;20038;-70
2023/06/29 05:58:57;;;;;;;29.73;23.75;;;20.40;99.90;;;;;;4978603;28;20042;-69
2023/06/29 06:01:23;;;;;;;30.95;24.30;;;20.30;99.90;;;;;;4973502;28;20266;-71
2023/06/29 06:03:49;;;;;;;28.98;23.08;;;20.30;99.90;;;;;;4976661;28;20050;-66
2023/06/29 06:06:15;;;;;;;28.60;23.38;;;20.30;99.90;;;;;;4987864;28;21010;-70
2023/06/29 06:08:40;;;;;;;31.40;24.25;;;20.40;99.90;;;;;;4979154;28;20049;-71
2023/06/29 06:11:06;;;;;;;30.55;22.52;;;20.40;99.90;;;;;;4980134;28;20434;-69
2023/06/29 06:13:32;;;;;;;26.05;21.85;;;20.40;99.90;;;;;;4974754;28;20089;-71
2023/06/29 06:15:58;;;;;;;31.90;23.48;;;20.30;99.90;;;;;;4993180;28;20768;-71
2023/06/29 06:18:23;;;;;;;28.15;22.58;;;20.50;99.90;;;;;;4984569;28;20072;-71
2023/06/29 06:20:49;;;;;;;30.33;22.10;;;20.50;99.90;;;;;;4979605;28;20129;-72
2023/06/29 06:23:15;;;;;;;26.30;22.55;;;20.50;99.90;;;;;;4991583;28;20743;-71
2023/06/29 06:25:40;;;;;;;28.67;21.92;;;20.80;99.90;;;;;;4977695;28;20144;-71
2023/06/29 06:28:06;;;;;;;31.17;22.73;;;21.00;99.90;;;;;;4977516;28;20042;-70
2023/06/29 06:30:32;;;;;;;28.33;22.30;;;21.20;99.90;;;;;;4981268;28;20538;-71
2023/06/29 06:33:01;;;;;;;28.02;21.65;;;21.30;99.90;;;;;;4941814;28;20038;-71
2023/06/29 06:35:28;;;;;;;28.08;21.98;;;21.50;99.90;;;;;;4977261;28;20297;-71
2023/06/29 06:37:54;;;;;;;23.38;20.10;;;21.70;99.90;;;;;;4973620;28;20133;-71
2023/06/29 06:40:21;;;;;;;26.20;21.05;;;21.60;90.20;;;;;;4976540;28;20650;-70
2023/06/29 06:42:47;;;;;;;26.75;21.20;;;21.70;99.90;;;;;;4976100;28;20079;-70
2023/06/29 06:45:13;;;;;;;27.77;22.75;;;21.90;99.90;;;;;;4978186;28;20050;-70
2023/06/29 06:47:39;;;;;;;24.25;20.63;;;21.90;99.90;;;;;;4979045;28;20104;-71
2023/06/29 06:50:06;;;;;;;26.38;21.65;;;21.90;96.80;;;;;;4972635;28;20042;-71
2023/06/29 06:52:31;;;;;;;26.17;20.98;;;21.90;72.90;;;;;;4963295;28;20055;-72
2023/06/29 06:54:57;;;;;;;24.10;20.10;;;21.80;13.90;;;;;;4976161;28;20598;-72
2023/06/29 06:57:23;;;;;;;25.00;20.08;;;21.80;1.00;;;;;;4974719;28;20051;-71
2023/06/29 06:59:49;;;;;;;24.20;20.67;;;21.80;1.00;;;;;;4958761;28;20454;-70
2023/06/29 07:02:15;;;;;;;25.88;21.23;;;21.70;1.00;;;;;;4976556;28;20050;-70
2023/06/29 07:04:41;;;;;;;23.95;20.13;;;21.80;1.00;;;;;;4975541;28;20050;-69
2023/06/29 07:07:07;;;;;;;26.80;19.30;;;21.90;1.00;;;;;;4958813;28;20056;-69
2023/06/29 07:09:33;;;;;;;24.45;20.02;;;21.80;1.00;;;;;;4972850;28;20088;-73
2023/06/29 07:11:59;;;;;;;27.42;19.15;;;21.90;1.00;;;;;;4972710;28;20117;-71
2023/06/29 07:14:25;;;;;;;25.70;20.20;;;21.80;1.00;;;;;;4978165;28;20042;-71
2023/06/29 07:16:51;;;;;;;23.70;19.75;;;21.70;1.00;;;;;;4974241;28;20160;-71
2023/06/29 07:19:17;;;;;;;24.00;20.48;;;21.70;1.00;;;;;;4977431;28;20053;-71
2023/06/29 07:21:43;;;;;;;25.73;21.33;;;21.50;1.00;;;;;;4983992;28;20035;-73
2023/06/29 07:24:10;;;;;;;25.42;20.52;;;21.50;1.00;;;;;;4962920;28;20050;-72
2023/06/29 07:26:36;;;;;;;27.13;20.35;;;21.50;99.90;;;;;;4985696;28;20061;-71
2023/06/29 07:29:04;;;;;;;26.35;21.45;;;21.60;99.90;;;;;;4980979;28;20049;-70
2023/06/29 07:31:30;;;;;;;26.38;22.15;;;21.50;99.90;;;;;;4968583;28;20490;-70
2023/06/29 07:33:56;;;;;;;25.10;21.20;;;21.60;99.90;;;;;;4976286;28;20073;-72
2023/06/29 07:36:26;;;;;;;26.67;21.33;;;21.50;99.90;;;;;;4976480;28;20768;-71
2023/06/29 07:38:52;;;;;;;26.98;21.67;;;21.40;99.90;;;;;;4972244;28;20038;-71
2023/06/29 07:41:19;;;;;;;25.35;21.50;;;21.40;99.90;;;;;;4979722;28;20183;-71
2023/06/29 07:43:54;;;;;;;27.20;20.50;;;21.40;99.90;;;;;;4981629;28;20035;-71
2023/06/29 07:46:20;;;;;;;26.77;20.88;;;21.40;99.90;;;;;;4982538;28;20050;-71
2023/06/29 07:48:50;;;;;;;23.63;20.58;;;21.40;99.90;;;;;;4974104;28;20057;-72
2023/06/29 07:51:16;;;;;;;27.42;20.98;;;21.40;99.90;;;;;;4975216;28;20253;-72
2023/06/29 07:53:50;;;;;;;25.42;21.05;;;21.40;1.00;;;;;;4977455;28;20104;-71
2023/06/29 07:56:16;;;;;;;27.38;21.00;;;21.40;99.90;;;;;;4981765;28;20077;-71
2023/06/29 07:58:41;;;;;;;26.75;20.42;;;21.40;99.90;;;;;;4957090;28;20051;-72
2023/06/29 08:01:07;;;;;;;29.45;21.98;;;21.40;99.90;;;;;;4983387;28;20045;-70
2023/06/29 08:03:33;;;;;;;30.45;22.38;;;21.30;99.90;;;;;;4977971;28;20057;-72
2023/06/29 08:05:59;;;;;;;24.38;19.65;;;21.30;99.90;;;;;;4985624;28;20054;-72
2023/06/29 08:08:28;;;;;;;26.48;20.20;;;21.30;99.90;;;;;;4987523;28;20500;-68
2023/06/29 08:10:55;;;;;;;23.88;20.67;;;21.20;1.00;;;;;;4979753;28;20050;-71
2023/06/29 08:13:21;;;;;;;24.73;20.75;;;21.10;1.00;;;;;;4982444;28;20140;-69
2023/06/29 08:15:46;;;;;;;26.42;22.00;;;21.20;1.00;;;;;;4981405;28;21092;-71
2023/06/29 08:18:12;;;;;;;27.10;20.67;;;21.30;1.00;;;;;;4983952;28;20041;-72
2023/06/29 08:20:38;;;;;;;27.88;21.17;;;21.30;1.00;;;;;;4985747;28;20073;-71
2023/06/29 08:23:04;;;;;;;28.38;20.38;;;21.40;99.90;;;;;;4973445;28;20077;-72
2023/06/29 08:25:30;;;;;;;30.33;22.00;;;21.30;99.90;;;;;;4983585;28;20115;-72
2023/06/29 08:27:56;;;;;;;29.00;21.92;;;21.30;1.00;;;;;;4978366;28;20536;-72
2023/06/29 08:30:22;;;;;;;28.15;21.55;;;21.30;99.90;;;;;;4986240;28;20038;-70
2023/06/29 08:32:48;;;;;;;34.13;22.40;;;21.40;1.00;;;;;;4982218;28;20048;-71
2023/06/29 08:35:14;;;;;;;26.80;22.38;;;21.30;1.00;;;;;;4983944;28;20054;-71
2023/06/29 08:37:40;;;;;;;28.20;22.20;;;21.30;1.00;;;;;;4983912;28;20042;-71
2023/06/29 08:40:07;;;;;;;28.52;23.42;;;21.20;1.00;;;;;;4981379;28;20100;-72
2023/06/29 08:42:33;;;;;;;30.92;22.45;;;21.20;1.00;;;;;;4974080;28;20561;-70
2023/06/29 08:44:58;;;;;;;29.50;23.05;;;21.20;1.00;;;;;;4981165;28;20046;-70
2023/06/29 08:47:28;;;;;;;26.33;22.42;;;21.20;1.00;;;;;;4984951;28;20034;-72
2023/06/29 08:49:57;;;;;;;30.40;23.63;;;21.30;3.00;;;;;;4982738;28;20042;-70
2023/06/29 08:52:26;;;;;;;30.10;24.27;;;21.40;1.00;;;;;;4981154;28;20118;-72
2023/06/29 08:54:53;;;;;;;29.13;23.48;;;21.50;1.00;;;;;;4983426;28;20034;-72
2023/06/29 08:57:19;;;;;;;27.23;21.30;;;21.60;4.30;;;;;;4963192;28;20486;-72
2023/06/29 08:59:48;;;;;;;30.52;23.17;;;21.70;18.50;;;;;;4984359;28;20053;-70
2023/06/29 09:02:15;;;;;;;29.73;23.85;;;21.70;36.90;;;;;;4982239;28;20057;-71
2023/06/29 09:04:40;;;;;;;30.48;22.20;;;21.90;1.00;;;;;;4990759;28;20057;-72
2023/06/29 09:07:06;;;;;;;27.60;22.83;;;21.90;1.00;;;;;;4960441;28;20038;-71
2023/06/29 09:09:32;;;;;;;33.05;24.20;;;22.00;1.00;;;;;;4983766;28;20465;-70
2023/06/29 09:12:00;;;;;;;25.52;21.83;;;22.30;1.00;;;;;;4978302;28;20134;-72
2023/06/29 09:14:28;;;;;;;27.33;23.00;;;22.50;99.90;;;;;;4983513;28;20619;-73
2023/06/29 09:17:01;;;;;;;29.13;23.23;;;22.40;99.90;;;;;;4979115;28;20045;-70
2023/06/29 09:19:27;;;;;;;;;;;22.70;99.90;;;;;;4969533;28;20104;-70
2023/06/29 09:21:53;;;;;;;28.75;23.38;;;22.70;99.90;;;;;;4981138;28;20477;-70
2023/06/29 09:24:20;;;;;;;27.05;20.92;;;22.80;99.90;;;;;;4987309;28;20038;-71
2023/06/29 09:26:53;;;;;;;27.95;22.73;;;22.90;99.90;;;;;;4981906;28;20360;-71
2023/06/29 09:29:18;;;;;;;26.95;21.70;;;23.10;99.90;;;;;;4981322;28;20089;-72
2023/06/29 09:31:58;;;;;;;27.48;22.65;;;23.10;99.90;;;;;;4976791;28;20575;-70
2023/06/29 09:34:27;;;;;;;28.77;22.33;;;23.20;99.90;;;;;;4979613;28;20045;-70
2023/06/29 09:36:54;;;;;;;25.52;22.70;;;23.40;99.90;;;;;;4973686;28;20084;-70
2023/06/29 09:39:20;;;;;;;25.50;21.60;;;23.50;99.90;;;;;;4985672;28;20050;-73
2023/06/29 09:41:56;;;;;;;26.92;21.77;;;23.60;99.90;;;;;;4985370;28;20102;-71
2023/06/29 09:44:25;;;;;;;26.75;22.20;;;23.60;99.90;;;;;;4962255;28;20048;-72
2023/06/29 09:47:05;;;;;;;27.92;22.25;;;23.60;99.90;;;;;;4980300;28;20053;-72
2023/06/29 09:49:31;;;;;;;27.73;21.45;;;23.60;99.90;;;;;;4954193;28;20556;-71
2023/06/29 09:52:04;;;;;;;28.25;21.05;;;23.60;99.90;;;;;;4986413;28;20113;-72
2023/06/29 09:54:37;;;;;;;26.27;21.45;;;23.70;99.90;;;;;;4985205;28;20058;-74
2023/06/29 09:57:03;;;;;;;;;;;23.60;99.90;;;;;;4970324;28;20058;-71
2023/06/29 09:59:36;;;;;;;25.73;21.38;;;23.50;99.90;;;;;;4980393;28;19961;-73
2023/06/29 10:02:03;;;;;;;26.45;21.27;;;23.50;99.90;;;;;;4983911;28;20050;-71
2023/06/29 10:04:29;;;;;;;26.23;20.23;;;23.40;99.90;;;;;;4981732;28;20110;-71
2023/06/29 10:07:25;;;;;;;25.13;20.08;;;23.60;99.90;;;;;;4970261;28;20068;-71
2023/06/29 10:09:51;;;;;;;24.38;19.70;;;23.80;99.90;;;;;;4976878;28;20082;-70
2023/06/29 10:12:18;;;;;;;28.67;19.65;;;24.00;96.10;;;;;;4985827;28;20570;-70
2023/06/29 10:14:44;;;;;;;25.63;20.25;;;23.90;71.90;;;;;;4989329;28;20613;-71
2023/06/29 10:17:24;;;;;;;24.30;19.90;;;23.80;45.90;;;;;;4978230;28;20050;-70
2023/06/29 10:19:51;;;;;;;25.38;19.70;;;23.80;77.30;;;;;;4984604;28;20613;-73
2023/06/29 10:22:18;;;;;;;25.58;21.02;;;23.80;99.90;;;;;;4977487;28;20113;-72
2023/06/29 10:25:03;;;;;;;27.30;22.67;;;23.80;32.80;;;;;;4979746;28;20046;-72
2023/06/29 10:27:30;;;;;;;26.92;21.75;;;23.70;24.10;;;;;;4979179;28;20419;-72
2023/06/29 10:30:01;;;;;;;28.60;22.63;;;23.60;64.20;;;;;;4979803;28;20042;-70
2023/06/29 10:32:38;;;;;;;23.13;20.73;;;23.50;79.20;;;;;;4981942;28;20048;-71
2023/06/29 10:35:09;;;;;;;26.58;22.27;;;23.50;1.00;;;;;;4984371;28;21126;-69
2023/06/29 10:37:37;;;;;;;24.83;21.58;;;23.60;1.00;;;;;;4982020;28;20115;-71
2023/06/29 10:40:08;;;;;;;26.50;21.80;;;23.50;1.00;;;;;;4981700;28;20125;-72
2023/06/29 10:42:36;;;;;;;23.77;21.17;;;23.40;32.60;;;;;;4980106;28;20632;-72
2023/06/29 10:45:02;;;;;;;23.70;20.98;;;23.40;30.10;;;;;;4978989;28;20061;-72
2023/06/29 10:47:38;;;;;;;25.08;21.42;;;23.10;1.00;;;;;;4980911;28;20100;-71
2023/06/29 10:50:09;;;;;;;28.10;22.40;;;22.90;21.10;;;;;;4977940;28;21062;-72
2023/06/29 10:52:36;;;;;;;25.27;22.55;;;22.50;99.90;;;;;;4976863;28;20046;-72
2023/06/29 10:55:19;;;;;;;27.60;24.65;;;22.10;99.90;;;;;;4986915;28;20042;-70
2023/06/29 10:57:54;;;;;;;;;;;21.90;99.90;;;;;;4984596;28;20050;-73
2023/06/29 11:00:22;;;;;;;30.83;25.77;;;21.70;99.90;;;;;;4964465;28;19925;-71
2023/06/29 11:02:49;;;;;;;30.80;25.98;;;21.60;99.90;;;;;;4978795;28;20049;-73
2023/06/29 11:05:18;;;;;;;29.17;24.55;;;21.70;99.90;;;;;;4986532;28;20044;-72
2023/06/29 11:07:47;;;;;;;28.70;24.75;;;21.80;99.90;;;;;;4986276;28;20274;-70
2023/06/29 11:10:13;;;;;;;32.33;25.90;;;21.80;99.90;;;;;;4976072;28;20038;-71
2023/06/29 11:12:40;;;;;;;30.70;26.35;;;21.80;99.90;;;;;;4982537;28;20766;-71
2023/06/29 11:15:18;;;;;;;32.03;26.88;;;21.80;99.90;;;;;;4984076;28;20049;-72
2023/06/29 11:17:45;;;;;;;31.15;26.30;;;21.80;99.90;;;;;;4977688;28;20046;-70
2023/06/29 11:20:13;;;;;;;30.42;25.83;;;21.80;99.90;;;;;;4985666;28;20293;-69
2023/06/29 11:22:39;;;;;;;30.30;26.30;;;21.80;99.90;;;;;;4975254;28;20045;-74
2023/06/29 11:25:07;;;;;;;29.95;26.65;;;21.70;99.90;;;;;;4986876;28;20044;-70
2023/06/29 11:27:33;;;;;;;33.40;29.98;;;21.70;99.90;;;;;;4981114;28;20134;-71
2023/06/29 11:29:59;;;;;;;36.00;29.70;;;21.60;99.90;;;;;;4968032;28;20066;-70
2023/06/29 11:32:26;;;;;;;38.35;30.45;;;21.60;99.90;;;;;;4983929;28;20125;-70
2023/06/29 11:35:02;;;;;;;37.10;29.25;;;21.50;99.90;;;;;;4973252;28;20133;-70
2023/06/29 11:37:29;;;;;;;35.28;29.95;;;21.60;99.90;;;;;;4981637;28;20128;-70
2023/06/29 11:39:55;;;;;;;35.22;30.10;;;21.70;99.90;;;;;;4984037;28;20030;-71
2023/06/29 11:42:23;;;;;;;37.47;30.63;;;21.70;99.90;;;;;;4977947;28;20046;-72
2023/06/29 11:45:09;;;;;;;34.10;30.40;;;21.80;99.90;;;;;;4983256;28;20042;-73
2023/06/29 11:47:36;;;;;;;34.35;30.58;;;21.90;99.90;;;;;;4975623;28;20049;-73
2023/06/29 11:50:04;;;;;;;33.45;28.73;;;22.10;99.90;;;;;;4980839;28;20554;-71
2023/06/29 11:52:32;;;;;;;33.08;29.02;;;22.30;99.90;;;;;;4976197;28;20493;-73
2023/06/29 11:55:00;;;;;;;33.38;27.83;;;22.40;99.90;;;;;;4979145;28;20034;-70
2023/06/29 11:57:26;;;;;;;30.58;27.27;;;22.50;99.90;;;;;;4975044;28;20058;-72
2023/06/29 11:59:52;;;;;;;30.13;26.95;;;22.40;99.90;;;;;;4959741;28;20037;-71
2023/06/29 12:02:19;;;;;;;29.75;26.05;;;22.40;99.90;;;;;;4980862;28;20100;-72
2023/06/29 12:04:56;;;;;;;30.70;26.38;;;22.40;99.90;;;;;;4976468;28;20725;-71
2023/06/29 12:07:44;;;;;;;28.52;25.63;;;22.30;99.90;;;;;;4975916;28;20362;-72
2023/06/29 12:10:20;;;;;;;28.77;25.75;;;22.30;99.90;;;;;;4982264;28;20038;-70
2023/06/29 12:12:58;;;;;;;29.02;25.90;;;22.10;99.90;;;;;;4978297;28;20695;-71
2023/06/29 12:15:25;;;;;;;30.40;26.90;;;22.00;99.90;;;;;;4979097;28;20208;-70
2023/06/29 12:17:53;;;;;;;29.05;26.00;;;22.00;99.90;;;;;;4974730;28;20050;-71
2023/06/29 12:20:21;;;;;;;30.88;27.00;;;22.20;99.90;;;;;;4975573;28;20686;-72
2023/06/29 12:22:49;;;;;;;29.92;26.45;;;22.20;99.90;;;;;;4976096;28;20038;-71
2023/06/29 12:25:17;;;;;;;30.45;26.85;;;22.30;99.90;;;;;;4978586;28;20038;-72
2023/06/29 12:27:44;;;;;;;29.58;26.38;;;22.40;99.90;;;;;;4984515;28;20049;-73
2023/06/29 12:30:15;;;;;;;30.98;27.25;;;22.50;99.90;;;;;;4978644;28;20077;-70
2023/06/29 12:32:42;;;;;;;29.38;26.27;;;22.80;99.90;;;;;;4980058;28;20837;-70
2023/06/29 12:35:08;;;;;;;31.15;27.55;;;23.20;99.90;;;;;;4981200;28;20054;-71
2023/06/29 12:37:34;;;;;;;31.25;28.05;;;23.50;99.90;;;;;;4984676;28;20045;-71
2023/06/29 12:40:00;;;;;;;30.45;27.10;;;23.60;55.60;;;;;;4985157;28;20073;-71
2023/06/29 12:42:26;;;;;;;30.15;27.05;;;23.70;1.00;;;;;;4975299;28;20046;-71
2023/06/29 12:44:52;;;;;;;31.27;28.08;;;24.00;1.00;;;;;;4988929;28;20457;-72
2023/06/29 12:47:20;;;;;;;28.27;25.42;;;24.00;1.00;;;;;;4986922;28;20449;-74
2023/06/29 12:49:46;;;;;;;29.90;25.83;;;24.10;1.00;;;;;;4978978;28;20104;-72
2023/06/29 12:52:14;;;;;;;27.40;24.50;;;24.30;99.90;;;;;;4981257;28;20045;-71
2023/06/29 12:54:39;;;;;;;29.45;26.02;;;24.40;99.90;;;;;;4984753;28;20615;-72
2023/06/29 12:57:05;;;;;;;26.85;24.05;;;24.70;99.90;;;;;;4982145;28;20098;-71
2023/06/29 12:59:31;;;;;;;26.25;23.50;;;25.00;99.90;;;;;;4982205;28;20113;-72
2023/06/29 13:02:04;;;;;;;28.17;25.38;;;25.00;99.90;;;;;;4984119;28;20112;-72
2023/06/29 13:04:35;;;;;;;27.17;24.30;;;25.40;99.90;;;;;;4984658;28;20042;-72
2023/06/29 13:07:04;;;;;;;26.48;23.65;;;25.50;99.90;;;;;;4981746;28;20081;-73
2023/06/29 13:09:30;;;;;;;27.98;24.08;;;25.70;99.90;;;;;;4984068;28;20037;-72
2023/06/29 13:11:59;;;;;;;27.00;24.20;;;26.00;99.90;;;;;;4986265;28;20041;-73
2023/06/29 13:14:25;;;;;;;25.38;22.80;;;26.00;99.90;;;;;;4964181;28;20723;-73
2023/06/29 13:16:51;;;;;;;26.02;22.85;;;26.10;99.90;;;;;;4983510;28;20042;-71
2023/06/29 13:19:16;;;;;;;27.13;24.33;;;26.20;99.90;;;;;;4987137;28;20100;-71
2023/06/29 13:21:43;;;;;;;27.88;24.58;;;26.30;99.90;;;;;;4984217;28;20695;-71
2023/06/29 13:24:08;;;;;;;27.63;24.73;;;26.50;99.90;;;;;;4983658;28;20053;-70
2023/06/29 13:26:34;;;;;;;27.75;24.48;;;27.30;99.90;;;;;;4961483;28;20049;-71
2023/06/29 13:29:00;;;;;;;26.42;23.67;;;27.80;99.90;;;;;;4984025;28;20050;-72
2023/06/29 13:31:26;;;;;;;27.52;24.38;;;27.70;99.90;;;;;;4985023;28;20072;-74
2023/06/29 13:33:52;;;;;;;28.38;23.58;;;27.80;99.90;;;;;;4961539;28;20714;-71
2023/06/29 13:36:17;;;;;;;25.95;23.15;;;28.00;99.90;;;;;;4983447;28;20572;-73
2023/06/29 13:38:44;;;;;;;27.42;24.55;;;28.00;99.90;;;;;;4985141;28;20097;-74
2023/06/29 13:41:09;;;;;;;27.20;24.45;;;27.90;99.90;;;;;;4983930;28;20498;-73
2023/06/29 13:43:35;;;;;;;26.05;23.35;;;27.70;99.90;;;;;;4972294;28;20129;-73
2023/06/29 13:46:01;;;;;;;25.42;22.67;;;27.60;99.90;;;;;;4990948;28;20042;-75
2023/06/29 13:48:27;;;;;;;25.42;22.27;;;27.60;99.90;;;;;;4960820;28;20056;-73
2023/06/29 13:50:52;;;;;;;25.48;22.35;;;27.40;99.90;;;;;;4981723;28;20050;-72
2023/06/29 13:53:18;;;;;;;25.52;22.77;;;27.30;99.90;;;;;;4982921;28;20049;-72